Time;durP1;ratioP1;P1;durP2;ratioP2;P2;SDS_P1;SDS_P2;PMS_P1;PMS_P2;Temp;Humidity;BMP_temperature;BMP_pressure;BME280_temperature;BME280_humidity;BME280_pressure;Samples;Min_cycle;Max_cycle;Signal;HPM_P1;HPM_P2
2023/05/21 00:01:02;;;;;;;1.40;1.10;;;;;;;5.68;100.00;100018.09;4833702;28;20068;-58
2023/05/21 00:03:34;;;;;;;1.85;1.25;;;;;;;5.74;100.00;100003.41;4830938;28;20756;-56
2023/05/21 00:06:12;;;;;;;1.40;1.25;;;;;;;5.87;100.00;100001.66;4830127;28;20063;-58
2023/05/21 00:08:50;;;;;;;3.25;1.25;;;;;;;5.92;100.00;99999.94;4832486;28;20089;-59
2023/05/21 00:11:32;;;;;;;1.17;1.00;;;;;;;6.01;100.00;99971.41;4820194;28;20061;-59
2023/05/21 00:14:06;;;;;;;1.98;1.20;;;;;;;6.11;100.00;99956.66;4828529;28;20688;-58
2023/05/21 00:16:36;;;;;;;1.65;1.33;;;;;;;6.19;100.00;99928.09;4833613;28;20190;-59
2023/05/21 00:19:09;;;;;;;1.80;1.33;;;;;;;6.45;100.00;99912.44;4833463;28;20050;-59
2023/05/21 00:21:39;;;;;;;1.85;1.30;;;;;;;6.83;100.00;99953.75;4832429;28;20051;-58
2023/05/21 00:24:12;;;;;;;2.10;1.60;;;;;;;7.17;100.00;99963.94;4832757;28;20144;-59
2023/05/21 00:26:43;;;;;;;1.60;1.30;;;;;;;7.26;100.00;99969.06;4833275;28;20120;-56
2023/05/21 00:29:16;;;;;;;1.80;1.63;;;;;;;7.31;100.00;99982.88;4832268;28;20396;-59
2023/05/21 00:31:47;;;;;;;2.50;1.70;;;;;;;7.50;100.00;99978.38;4832663;28;20072;-59
2023/05/21 00:34:20;;;;;;;4.07;1.77;;;;;;;7.49;100.00;99947.22;4833416;28;20425;-59
2023/05/21 00:36:52;;;;;;;3.33;1.42;;;;;;;7.84;100.00;99992.81;4832165;28;20069;-59
2023/05/21 00:39:26;;;;;;;2.53;1.70;;;;;;;7.70;100.00;99980.81;4824322;28;20051;-58
2023/05/21 00:41:58;;;;;;;1.90;1.40;;;;;;;7.72;100.00;99984.25;4833149;28;20581;-58
2023/05/21 00:44:33;;;;;;;1.50;1.40;;;;;;;7.93;100.00;99971.91;4833005;28;20655;-59
2023/05/21 00:47:05;;;;;;;2.75;1.55;;;;;;;8.00;100.00;99973.59;4829115;28;20059;-58
2023/05/21 00:49:36;;;;;;;2.58;1.55;;;;;;;8.16;100.00;99954.34;4832289;28;20428;-60
2023/05/21 00:52:10;;;;;;;1.55;1.25;;;;;;;8.12;100.00;99942.22;4833106;28;21391;-59
2023/05/21 00:54:42;;;;;;;1.52;1.38;;;;;;;8.24;100.00;99945.56;4831359;28;20047;-59
2023/05/21 00:57:14;;;;;;;2.83;1.77;;;;;;;8.36;100.00;99909.84;4828970;28;20414;-60
2023/05/21 00:59:45;;;;;;;2.25;1.60;;;;;;;8.48;99.41;99872.38;4834808;28;20054;-58
2023/05/21 01:02:16;;;;;;;2.10;1.90;;;;;;;8.50;100.00;99860.19;4832131;28;20081;-59
2023/05/21 01:04:47;;;;;;;2.42;1.90;;;;;;;8.40;99.47;99837.78;4832056;28;20046;-59
2023/05/21 01:07:18;;;;;;;2.13;1.67;;;;;;;8.70;100.00;99853.84;4832192;28;20133;-59
2023/05/21 01:09:53;;;;;;;3.55;2.08;;;;;;;8.78;97.91;99849.38;4831227;28;20093;-59
2023/05/21 01:12:24;;;;;;;1.90;1.38;;;;;;;8.85;97.30;99851.84;4827842;28;20590;-57
2023/05/21 01:15:07;;;;;;;4.05;1.65;;;;;;;8.80;99.09;99858.03;4832366;28;20469;-58
2023/05/21 01:17:38;;;;;;;6.03;1.63;;;;;;;8.93;99.16;99838.69;4821934;28;20597;-59
2023/05/21 01:20:17;;;;;;;4.15;1.65;;;;;;;9.06;96.14;99832.41;4830315;28;20064;-59
2023/05/21 01:22:57;;;;;;;2.20;1.90;;;;;;;9.12;96.39;99828.84;4823149;28;20556;-58
2023/05/21 01:25:27;;;;;;;1.90;1.65;;;;;;;9.13;98.52;99814.03;4822887;28;20524;-58
2023/05/21 01:27:58;;;;;;;1.70;1.60;;;;;;;9.19;97.44;99811.34;4831165;28;20050;-58
2023/05/21 01:30:29;;;;;;;2.95;1.50;;;;;;;9.20;97.33;99790.44;4831348;28;20060;-59
2023/05/21 01:33:14;;;;;;;4.28;1.90;;;;;;;9.45;97.91;99806.50;4831797;28;20046;-59
2023/05/21 01:35:54;;;;;;;5.10;2.60;;;;;;;9.45;95.70;99801.28;4820634;28;20176;-58
2023/05/21 01:38:34;;;;;;;5.35;2.13;;;;;;;9.46;98.90;99800.41;4821299;28;20108;-58
2023/05/21 01:41:09;;;;;;;;;;;;;;;9.61;97.01;99796.63;4822470;28;20054;-57
2023/05/21 01:43:43;;;;;;;2.67;1.70;;;;;;;9.60;96.74;99778.41;4829212;28;19925;-58
2023/05/21 01:46:22;;;;;;;3.22;2.30;;;;;;;9.66;96.15;99760.88;4828322;28;20087;-58
2023/05/21 01:48:56;;;;;;;4.18;2.28;;;;;;;9.65;96.43;99764.38;4825854;28;20141;-58
2023/05/21 01:51:28;;;;;;;3.40;1.90;;;;;;;9.83;96.78;99765.72;4831288;28;20065;-57
2023/05/21 01:54:00;;;;;;;2.20;1.52;;;;;;;9.96;95.67;99768.94;4830258;28;20718;-58
2023/05/21 01:56:32;;;;;;;1.90;1.40;;;;;;;9.64;95.05;99753.97;4831240;28;20169;-58
2023/05/21 01:59:06;;;;;;;2.92;1.45;;;;;;;9.49;96.44;99771.66;4822499;28;20153;-58
2023/05/21 02:01:36;;;;;;;1.55;1.40;;;;;;;9.50;96.65;99768.13;4830641;28;20145;-57
2023/05/21 02:04:12;;;;;;;1.83;1.50;;;;;;;9.48;96.60;99777.78;4831158;28;20447;-58
2023/05/21 02:06:43;;;;;;;1.75;1.50;;;;;;;9.53;97.21;99776.78;4831793;28;20056;-58
2023/05/21 02:09:18;;;;;;;2.22;1.60;;;;;;;9.47;96.60;99777.78;4826509;28;20082;-58
2023/05/21 02:11:48;;;;;;;2.42;1.65;;;;;;;9.32;96.38;99783.31;4830028;28;20522;-57
2023/05/21 02:14:19;;;;;;;2.38;1.73;;;;;;;9.30;97.54;99791.13;4831502;28;20054;-59
2023/05/21 02:16:51;;;;;;;3.88;2.10;;;;;;;9.40;96.81;99797.91;4829777;28;20564;-57
2023/05/21 02:19:22;;;;;;;3.08;1.50;;;;;;;9.38;95.10;99799.66;4830858;28;20050;-58
2023/05/21 02:21:52;;;;;;;4.75;1.80;;;;;;;9.43;95.51;99789.16;4830263;28;20161;-58
2023/05/21 02:24:26;;;;;;;2.13;1.45;;;;;;;9.54;95.28;99784.59;4826893;28;20051;-57
2023/05/21 02:26:57;;;;;;;3.97;1.75;;;;;;;9.58;96.16;99777.56;4830637;28;20061;-57
2023/05/21 02:29:28;;;;;;;1.80;1.60;;;;;;;9.62;94.97;99787.06;4831056;28;20046;-57
2023/05/21 02:32:01;;;;;;;3.15;1.60;;;;;;;9.67;94.04;99806.09;4830404;28;20148;-57
2023/05/21 02:34:41;;;;;;;2.47;1.52;;;;;;;9.67;94.73;99790.44;4830738;28;20108;-56
2023/05/21 02:37:11;;;;;;;5.15;2.17;;;;;;;9.65;94.39;99797.41;4821088;28;20054;-58
2023/05/21 02:39:44;;;;;;;2.35;1.70;;;;;;;9.66;94.83;99793.91;4830651;28;20566;-57
2023/05/21 02:42:17;;;;;;;2.63;1.63;;;;;;;9.72;95.29;99799.03;4819830;28;20133;-56
2023/05/21 02:44:47;;;;;;;2.03;1.70;;;;;;;9.66;94.52;99793.91;4830495;28;20078;-57
2023/05/21 02:47:18;;;;;;;2.42;2.03;;;;;;;9.77;95.33;99802.41;4830798;28;20082;-60
2023/05/21 02:49:53;;;;;;;2.63;1.90;;;;;;;9.87;96.02;99793.47;4829819;28;20481;-57
2023/05/21 02:52:23;;;;;;;2.55;1.77;;;;;;;9.91;96.47;99779.50;4826662;28;20079;-58
2023/05/21 02:54:56;;;;;;;3.63;2.20;;;;;;;9.71;96.71;99739.91;4833718;28;20087;-59
2023/05/21 02:57:27;;;;;;;3.50;2.10;;;;;;;10.13;95.93;99799.88;4830756;28;21397;-59
2023/05/21 02:59:58;;;;;;;2.88;1.67;;;;;;;10.13;94.44;99790.31;4829996;28;20062;-58
2023/05/21 03:02:31;;;;;;;3.60;1.92;;;;;;;10.18;94.46;99786.72;4830438;28;20065;-60
2023/05/21 03:05:04;;;;;;;2.28;1.85;;;;;;;10.12;94.61;99772.06;4831377;28;20480;-57
2023/05/21 03:07:37;;;;;;;1.70;1.60;;;;;;;9.99;94.98;99760.19;4828888;28;20052;-57
2023/05/21 03:10:11;;;;;;;2.92;2.13;;;;;;;9.96;96.16;99768.06;4830514;28;20130;-59
2023/05/21 03:12:42;;;;;;;2.70;1.83;;;;;;;9.94;97.06;99753.31;4830810;28;20755;-59
2023/05/21 03:15:13;;;;;;;3.88;2.10;;;;;;;9.84;98.34;99749.19;4830907;28;20054;-58
2023/05/21 03:17:57;;;;;;;4.50;2.42;;;;;;;9.76;99.56;99732.84;4820371;28;20089;-59
2023/05/21 03:20:32;;;;;;;3.83;2.47;;;;;;;9.66;100.00;99731.31;4820473;28;20397;-59
2023/05/21 03:23:03;;;;;;;2.58;2.20;;;;;;;9.62;100.00;99727.91;4831409;28;20631;-58
2023/05/21 03:25:35;;;;;;;3.70;2.42;;;;;;;9.60;100.00;99719.25;4827637;28;20144;-57
2023/05/21 03:28:08;;;;;;;2.67;1.83;;;;;;;9.68;100.00;99713.88;4830238;28;20058;-59
2023/05/21 03:30:39;;;;;;;2.55;2.00;;;;;;;9.69;100.00;99710.38;4830255;28;20149;-60
2023/05/21 03:33:11;;;;;;;4.80;2.60;;;;;;;9.63;100.00;99705.28;4830990;28;20046;-58
2023/05/21 03:35:42;;;;;;;3.50;2.28;;;;;;;9.73;100.00;99701.59;4832479;28;20085;-59
2023/05/21 03:38:12;;;;;;;4.70;2.05;;;;;;;9.88;100.00;99695.16;4832963;28;20069;-58
2023/05/21 03:40:44;;;;;;;3.78;2.10;;;;;;;9.69;100.00;99660.81;4833228;28;20056;-59
2023/05/21 03:43:21;;;;;;;2.83;1.90;;;;;;;9.83;100.00;99681.38;4834456;28;20489;-57
2023/05/21 03:45:55;;;;;;;3.17;2.28;;;;;;;9.72;100.00;99684.22;4831921;28;20058;-59
2023/05/21 03:48:29;;;;;;;2.95;2.20;;;;;;;9.72;100.00;99671.19;4824041;28;20058;-59
2023/05/21 03:51:00;;;;;;;3.47;2.30;;;;;;;9.53;100.00;99651.59;4833961;28;20547;-59
2023/05/21 03:53:36;;;;;;;2.50;1.88;;;;;;;9.71;100.00;99651.22;4839226;28;20189;-59
2023/05/21 03:56:12;;;;;;;2.97;2.10;;;;;;;9.71;100.00;99640.78;4823504;28;20060;-57
2023/05/21 03:58:42;;;;;;;2.83;2.20;;;;;;;9.68;100.00;99638.22;4833681;28;20405;-57
2023/05/21 04:01:16;;;;;;;3.88;2.38;;;;;;;9.68;100.00;99625.19;4827233;28;20548;-59
2023/05/21 04:03:47;;;;;;;7.03;2.25;;;;;;;9.76;100.00;99617.16;4821943;28;20129;-59
2023/05/21 04:06:24;;;;;;;3.63;2.50;;;;;;;9.74;100.00;99622.44;4827645;28;20113;-59
2023/05/21 04:08:54;;;;;;;7.88;2.90;;;;;;;9.54;100.00;99575.09;4822424;28;20063;-60
2023/05/21 04:11:27;;;;;;;3.03;2.08;;;;;;;9.80;100.00;99616.22;4829284;28;20074;-59
2023/05/21 04:13:57;;;;;;;3.83;1.60;;;;;;;9.68;93.33;99612.13;4833431;28;20145;-59
2023/05/21 04:16:28;;;;;;;2.22;1.50;;;;;;;9.70;92.89;99618.19;4836824;28;20058;-59
2023/05/21 04:18:59;;;;;;;2.65;1.73;;;;;;;9.74;92.64;99593.75;4835088;28;20396;-58
2023/05/21 04:21:32;;;;;;;4.15;1.50;;;;;;;9.84;93.52;99595.25;4831826;28;20665;-58
2023/05/21 04:24:06;;;;;;;1.13;1.00;;;;;;;9.88;90.71;99586.44;4823101;28;20119;-60
2023/05/21 04:26:40;;;;;;;1.30;0.90;;;;;;;9.45;87.51;99524.00;4833075;28;20049;-59
2023/05/21 04:29:11;;;;;;;1.42;1.02;;;;;;;9.84;90.40;99569.16;4831266;28;20814;-60
2023/05/21 04:31:42;;;;;;;1.52;1.08;;;;;;;9.90;90.64;99579.41;4832717;28;20046;-59
2023/05/21 04:34:16;;;;;;;0.90;0.80;;;;;;;9.78;88.43;99573.66;4833262;28;20073;-59
2023/05/21 04:36:47;;;;;;;1.02;0.75;;;;;;;9.58;87.77;99558.47;4820566;28;20127;-58
2023/05/21 04:39:20;;;;;;;0.85;0.73;;;;;;;9.14;84.99;99516.03;4815045;28;20054;-59
2023/05/21 04:41:53;;;;;;;0.77;0.60;;;;;;;9.02;85.25;99567.53;4831981;28;20058;-58
2023/05/21 04:44:24;;;;;;;0.60;0.60;;;;;;;8.67;84.12;99546.56;4824839;28;20067;-59
2023/05/21 04:46:57;;;;;;;1.00;0.60;;;;;;;8.37;84.11;99547.09;4832420;28;20050;-58
2023/05/21 04:49:33;;;;;;;2.50;0.90;;;;;;;8.15;86.09;99544.03;4831919;28;20058;-59
2023/05/21 04:52:07;;;;;;;0.70;0.70;;;;;;;7.94;85.68;99536.63;4804405;28;20609;-57
2023/05/21 04:54:38;;;;;;;2.42;0.73;;;;;;;7.70;86.99;99533.53;4834253;28;20050;-60
2023/05/21 04:57:10;;;;;;;1.40;0.70;;;;;;;7.48;87.48;99516.56;4834310;28;20046;-59
2023/05/21 04:59:45;;;;;;;2.35;1.02;;;;;;;7.28;88.78;99520.31;4830494;28;20152;-59
2023/05/21 05:02:16;;;;;;;2.22;0.98;;;;;;;7.15;89.59;99521.38;4820979;28;20090;-59
2023/05/21 05:04:49;;;;;;;1.52;0.80;;;;;;;7.14;89.66;99506.69;4832398;28;20154;-59
2023/05/21 05:07:20;;;;;;;3.22;0.90;;;;;;;7.17;90.08;99491.03;4830000;28;20053;-60
2023/05/21 05:09:51;;;;;;;2.15;0.90;;;;;;;7.27;89.34;99481.38;4830210;28;20054;-60
2023/05/21 05:12:24;;;;;;;1.40;0.85;;;;;;;7.32;89.30;99477.81;4830962;28;20104;-59
2023/05/21 05:14:55;;;;;;;1.95;0.80;;;;;;;7.42;89.47;99475.06;4821393;28;20046;-57
2023/05/21 05:17:26;;;;;;;2.35;0.80;;;;;;;7.50;88.77;99468.84;4831338;28;20055;-60
2023/05/21 05:19:59;;;;;;;1.40;0.60;;;;;;;7.56;88.28;99462.69;4831324;28;20169;-60
2023/05/21 05:22:30;;;;;;;0.80;0.70;;;;;;;7.58;87.45;99450.53;4830594;28;20054;-58
2023/05/21 05:25:01;;;;;;;5.25;0.73;;;;;;;7.50;87.96;99468.00;4830464;28;20065;-60
2023/05/21 05:27:33;;;;;;;0.80;0.70;;;;;;;7.45;87.10;99443.81;4831502;28;20084;-59
2023/05/21 05:30:11;;;;;;;2.15;1.55;;;;;;;7.33;87.13;99448.31;4820151;28;20050;-59
2023/05/21 05:32:41;;;;;;;1.33;0.60;;;;;;;7.31;87.25;99437.13;4830796;28;20058;-61
2023/05/21 05:35:12;;;;;;;3.78;1.77;;;;;;;7.25;87.42;99432.00;4830854;28;20137;-61
2023/05/21 05:37:43;;;;;;;1.42;0.82;;;;;;;7.14;86.98;99428.75;4825328;28;20047;-59
2023/05/21 05:40:14;;;;;;;2.58;1.55;;;;;;;7.06;87.70;99431.47;4836155;28;20063;-60
2023/05/21 05:42:48;;;;;;;1.13;0.80;;;;;;;7.09;88.50;99425.34;4829237;28;20056;-60
2023/05/21 05:45:18;;;;;;;1.10;0.82;;;;;;;6.99;88.49;99421.16;4830549;28;20070;-60
2023/05/21 05:47:53;;;;;;;0.77;0.70;;;;;;;7.04;88.73;99424.53;4830833;28;20065;-61
2023/05/21 05:50:27;;;;;;;0.85;0.75;;;;;;;6.89;88.53;99426.50;4819868;28;20061;-60
2023/05/21 05:52:57;;;;;;;1.63;0.90;;;;;;;6.71;89.05;99434.53;4830222;28;20057;-59
2023/05/21 05:55:29;;;;;;;4.03;1.20;;;;;;;6.57;90.08;99436.50;4829967;28;20408;-60
2023/05/21 05:58:07;;;;;;;3.47;1.15;;;;;;;6.42;90.29;99437.56;4828862;28;20047;-60
2023/05/21 06:00:39;;;;;;;1.50;1.02;;;;;;;6.29;92.92;99426.47;4819924;28;20137;-59
2023/05/21 06:03:12;;;;;;;5.22;1.02;;;;;;;6.36;92.82;99441.06;4830951;28;20058;-59
2023/05/21 06:05:44;;;;;;;1.90;1.08;;;;;;;6.33;92.71;99451.47;4824917;28;20063;-58
2023/05/21 06:08:16;;;;;;;2.97;1.00;;;;;;;6.13;93.08;99443.09;4829643;28;21121;-61
2023/05/21 06:10:47;;;;;;;5.25;1.05;;;;;;;5.84;93.51;99403.59;4828982;28;20054;-59
2023/05/21 06:13:21;;;;;;;3.33;1.30;;;;;;;6.02;93.75;99433.69;4831061;28;20101;-59
2023/05/21 06:15:54;;;;;;;3.60;1.13;;;;;;;6.05;94.85;99433.66;4830181;28;20669;-60
2023/05/21 06:18:25;;;;;;;2.17;1.10;;;;;;;5.97;93.52;99430.28;4821215;28;20043;-59
2023/05/21 06:20:57;;;;;;;2.65;0.90;;;;;;;5.90;93.50;99423.41;4829880;28;20054;-59
2023/05/21 06:23:30;;;;;;;4.20;2.45;;;;;;;5.88;93.55;99425.16;4830045;28;20828;-60
2023/05/21 06:26:02;;;;;;;3.03;1.30;;;;;;;5.87;93.32;99428.66;4830297;28;20156;-60
2023/05/21 06:28:36;;;;;;;3.25;1.50;;;;;;;5.83;92.98;99411.41;4827543;28;20801;-59
2023/05/21 06:31:08;;;;;;;3.65;1.05;;;;;;;5.92;93.04;99416.50;4830570;28;20051;-59
2023/05/21 06:33:39;;;;;;;1.52;0.90;;;;;;;5.87;92.73;99418.28;4827416;28;20108;-60
2023/05/21 06:36:11;;;;;;;2.10;0.85;;;;;;;6.04;93.75;99420.69;4829953;28;20378;-58
2023/05/21 06:38:43;;;;;;;2.67;1.00;;;;;;;5.80;94.04;99354.41;4829904;28;20050;-58
2023/05/21 06:41:15;;;;;;;1.17;0.70;;;;;;;6.20;91.59;99416.19;4825190;28;20671;-59
2023/05/21 06:43:48;;;;;;;1.60;0.90;;;;;;;6.21;92.19;99412.72;4830424;28;20061;-58
2023/05/21 06:46:22;;;;;;;2.33;0.70;;;;;;;6.24;91.91;99405.78;4829392;28;20070;-59
2023/05/21 06:48:56;;;;;;;1.67;0.80;;;;;;;6.03;91.43;99373.16;4827882;28;20066;-59
2023/05/21 06:51:28;;;;;;;1.08;0.82;;;;;;;6.17;91.19;99385.13;4820212;28;20073;-59
2023/05/21 06:53:59;;;;;;;0.82;0.63;;;;;;;6.13;90.37;99386.03;4828994;28;20061;-58
2023/05/21 06:56:31;;;;;;;0.70;0.70;;;;;;;6.14;91.15;99373.03;4829540;28;20055;-59
2023/05/21 06:59:08;;;;;;;0.60;0.50;;;;;;;6.18;91.40;99374.69;4828963;28;20054;-58
2023/05/21 07:01:43;;;;;;;1.65;0.60;;;;;;;6.24;91.69;99376.34;4820852;28;20130;-58
2023/05/21 07:04:15;;;;;;;3.13;1.63;;;;;;;6.23;90.96;99372.06;4825025;28;20055;-58
2023/05/21 07:06:47;;;;;;;0.50;0.50;;;;;;;6.20;91.40;99379.88;4829962;28;20054;-59
2023/05/21 07:09:19;;;;;;;0.98;0.60;;;;;;;6.26;92.36;99385.88;4832278;28;20046;-58
2023/05/21 07:11:50;;;;;;;2.00;0.60;;;;;;;6.32;92.89;99379.72;4832228;28;20882;-58
2023/05/21 07:14:24;;;;;;;1.23;0.63;;;;;;;6.24;91.56;99379.81;4833587;28;20046;-59
2023/05/21 07:16:56;;;;;;;0.63;0.50;;;;;;;6.26;92.12;99372.88;4823412;28;20786;-60
2023/05/21 07:19:28;;;;;;;1.05;0.57;;;;;;;6.29;92.40;99374.59;4834173;28;20108;-59
2023/05/21 07:22:00;;;;;;;0.93;0.50;;;;;;;6.30;91.60;99370.25;4832818;28;20774;-58
2023/05/21 07:24:32;;;;;;;1.33;0.60;;;;;;;6.10;91.14;99367.91;4833200;28;20072;-59
2023/05/21 07:27:05;;;;;;;0.82;0.50;;;;;;;6.19;90.39;99383.34;4834025;28;20151;-59
2023/05/21 07:29:55;;;;;;;1.90;0.55;;;;;;;6.12;90.85;99376.53;4822100;28;20154;-58
2023/05/21 07:32:27;;;;;;;3.50;0.50;;;;;;;6.04;91.85;99369.69;4823085;28;20054;-58
2023/05/21 07:35:03;;;;;;;1.70;0.70;;;;;;;6.10;92.94;99367.91;4833200;28;20054;-58
2023/05/21 07:37:34;;;;;;;0.82;0.70;;;;;;;5.97;93.98;99347.31;4829160;28;20071;-59
2023/05/21 07:40:07;;;;;;;0.52;0.52;;;;;;;6.08;94.43;99356.69;4832706;28;20062;-56
2023/05/21 07:42:39;;;;;;;0.88;0.60;;;;;;;5.81;94.67;99314.63;4833115;28;20145;-59
2023/05/21 07:45:13;;;;;;;0.68;0.60;;;;;;;6.14;95.60;99354.00;4833441;28;20050;-58
2023/05/21 07:47:46;;;;;;;0.50;0.50;;;;;;;6.15;95.50;99340.19;4828136;28;20052;-59
2023/05/21 07:50:18;;;;;;;1.85;0.50;;;;;;;6.17;95.02;99341.03;4831292;28;20456;-57
2023/05/21 07:52:50;;;;;;;1.83;0.60;;;;;;;6.05;94.70;99324.72;4833242;28;20129;-58
2023/05/21 07:55:22;;;;;;;1.08;0.60;;;;;;;6.11;94.17;99322.94;4833589;28;20185;-59
2023/05/21 07:57:54;;;;;;;0.68;0.40;;;;;;;6.18;94.13;99311.59;4831288;28;20098;-58
2023/05/21 08:00:27;;;;;;;1.52;0.50;;;;;;;6.27;93.98;99319.25;4833267;28;20050;-58
2023/05/21 08:02:59;;;;;;;3.70;0.60;;;;;;;6.27;93.67;99308.88;4830459;28;20057;-58
2023/05/21 08:05:31;;;;;;;0.50;0.50;;;;;;;6.31;94.50;99307.94;4833138;28;20704;-59
2023/05/21 08:08:03;;;;;;;3.70;0.65;;;;;;;6.27;94.32;99298.50;4831799;28;20046;-57
2023/05/21 08:10:38;;;;;;;0.63;0.47;;;;;;;6.17;95.17;99291.75;4822916;28;20481;-57
2023/05/21 08:13:10;;;;;;;1.27;0.50;;;;;;;6.01;97.46;99284.13;4833818;28;20050;-58
2023/05/21 08:15:44;;;;;;;0.73;0.55;;;;;;;5.93;98.43;99293.72;4833735;28;20063;-58
2023/05/21 08:18:16;;;;;;;2.15;0.70;;;;;;;5.90;99.96;99291.19;4824011;28;20071;-57
2023/05/21 08:20:49;;;;;;;2.10;1.20;;;;;;;5.90;100.00;99283.41;4831520;28;20052;-58
2023/05/21 08:23:21;;;;;;;2.30;0.90;;;;;;;5.92;100.00;99278.22;4833062;28;20066;-58
2023/05/21 08:25:53;;;;;;;1.25;0.80;;;;;;;5.96;100.00;99283.34;4831562;28;20436;-57
2023/05/21 08:28:26;;;;;;;2.05;0.80;;;;;;;5.90;100.00;99261.81;4824775;28;20047;-57
2023/05/21 08:31:00;;;;;;;2.10;0.90;;;;;;;6.09;100.00;99290.97;4832855;28;20054;-56
2023/05/21 08:33:32;;;;;;;2.65;1.15;;;;;;;6.25;100.00;99279.50;4829274;28;20050;-56
2023/05/21 08:36:06;;;;;;;2.60;1.00;;;;;;;6.32;100.00;99280.28;4830591;28;20056;-58
2023/05/21 08:38:38;;;;;;;0.95;0.85;;;;;;;6.13;100.00;99258.94;4822230;28;20060;-58
2023/05/21 08:41:10;;;;;;;2.72;1.00;;;;;;;5.94;100.00;99258.31;4832591;28;20058;-57
2023/05/21 08:43:42;;;;;;;1.95;0.90;;;;;;;5.78;100.00;99252.47;4831340;28;20532;-56
2023/05/21 08:46:20;;;;;;;2.92;1.10;;;;;;;5.57;100.00;99228.53;4831937;28;20063;-56
2023/05/21 08:48:54;;;;;;;2.22;1.15;;;;;;;5.58;100.00;99225.06;4822753;28;20130;-57
2023/05/21 08:51:26;;;;;;;4.57;1.30;;;;;;;5.61;100.00;99229.34;4821992;28;20137;-57
2023/05/21 08:54:00;;;;;;;2.00;0.90;;;;;;;5.63;100.00;99206.88;4831521;28;20054;-58
2023/05/21 08:56:35;;;;;;;4.05;1.00;;;;;;;5.63;100.00;99218.06;4832468;28;20042;-57
2023/05/21 08:59:08;;;;;;;2.28;1.10;;;;;;;5.55;100.00;99214.75;4823222;28;20060;-58
2023/05/21 09:01:42;;;;;;;4.50;1.10;;;;;;;5.43;100.00;99194.16;4830723;28;20061;-57
2023/05/21 09:04:18;;;;;;;2.30;1.10;;;;;;;5.39;100.00;99182.13;4827337;28;20814;-58
2023/05/21 09:07:22;;;;;;;5.07;1.30;;;;;;;5.77;100.00;99225.69;4834110;28;20053;-59
2023/05/21 09:09:57;;;;;;;3.13;1.40;;;;;;;5.89;100.00;99254.91;4829527;28;20092;-57
2023/05/21 09:12:29;;;;;;;3.05;1.30;;;;;;;5.99;100.00;99257.41;4830829;28;20216;-59
2023/05/21 09:15:02;;;;;;;3.33;1.25;;;;;;;5.99;100.00;99257.41;4831550;28;20064;-57
2023/05/21 09:17:35;;;;;;;5.00;1.40;;;;;;;6.01;100.00;99255.63;4832425;28;20046;-59
2023/05/21 09:20:14;;;;;;;2.63;1.05;;;;;;;6.06;100.00;99278.91;4820908;28;20057;-58
2023/05/21 09:22:47;;;;;;;0.50;0.50;;;;;;;5.90;100.00;99267.00;4821696;28;20081;-57
2023/05/21 09:25:19;;;;;;;0.60;0.60;;;;;;;5.82;100.00;99248.97;4831482;28;20049;-58
2023/05/21 09:27:59;;;;;;;2.97;1.50;;;;;;;6.08;100.00;99271.09;4821718;28;20061;-58
2023/05/21 09:30:31;;;;;;;1.35;1.25;;;;;;;6.13;100.00;99269.31;4830373;28;20054;-57
2023/05/21 09:33:08;;;;;;;0.40;0.40;;;;;;;6.07;100.00;99265.06;4830410;28;20046;-58
2023/05/21 09:35:47;;;;;;;0.60;0.50;;;;;;;6.03;98.63;99274.59;4830366;28;20444;-59
2023/05/21 09:38:24;;;;;;;1.23;0.63;;;;;;;6.04;98.48;99275.47;4819672;28;20056;-57
2023/05/21 09:40:57;;;;;;;0.50;0.50;;;;;;;5.95;97.65;99266.09;4821009;28;20317;-56
2023/05/21 09:43:37;;;;;;;0.45;0.45;;;;;;;6.08;97.32;99260.72;4830309;28;20501;-57
2023/05/21 09:46:10;;;;;;;0.40;0.40;;;;;;;5.98;95.71;99250.47;4820067;28;20046;-56
2023/05/21 09:48:44;;;;;;;1.98;0.73;;;;;;;5.86;94.18;99244.56;4828506;28;20056;-56
2023/05/21 09:51:16;;;;;;;0.40;0.40;;;;;;;5.77;92.30;99235.19;4820332;28;20111;-57
2023/05/21 09:53:52;;;;;;;0.70;0.70;;;;;;;5.72;92.90;99221.44;4830381;28;20571;-57
2023/05/21 09:56:24;;;;;;;0.50;0.50;;;;;;;5.71;93.84;99211.94;4826217;28;20843;-58
2023/05/21 09:58:57;;;;;;;1.10;0.90;;;;;;;5.68;94.35;99199.03;4819517;28;20153;-55
2023/05/21 10:01:32;;;;;;;1.25;1.02;;;;;;;5.66;96.10;99195.59;4829672;28;20694;-57
2023/05/21 10:04:08;;;;;;;1.45;0.95;;;;;;;5.60;98.40;99191.34;4835803;28;20060;-56
2023/05/21 10:06:46;;;;;;;1.67;0.90;;;;;;;5.61;99.99;99200.84;4829805;28;20488;-57
2023/05/21 10:09:21;;;;;;;0.93;0.80;;;;;;;5.76;100.00;99217.91;4819517;28;20054;-58
2023/05/21 10:53:03;;;;;;;1.67;1.10;;;;;;;5.53;100.00;99226.84;4819187;28;20056;-59
2023/05/21 10:55:44;;;;;;;2.58;0.75;;;;;;;5.48;100.00;99233.81;4819752;28;20162;-58
2023/05/21 10:58:40;;;;;;;1.80;1.00;;;;;;;5.51;100.00;99232.94;4824393;28;20054;-56
2023/05/21 11:01:13;;;;;;;1.02;0.90;;;;;;;5.46;100.00;99245.94;4823143;28;20157;-58
2023/05/21 11:03:45;;;;;;;0.77;0.70;;;;;;;5.50;100.00;99250.22;4826294;28;20059;-58
2023/05/21 11:06:25;;;;;;;2.45;1.00;;;;;;;5.61;100.00;99242.31;4832847;28;20105;-58
2023/05/21 11:09:02;;;;;;;4.15;1.92;;;;;;;5.72;100.00;99239.59;4824890;28;20719;-59
2023/05/21 11:11:44;;;;;;;1.63;1.00;;;;;;;5.58;100.00;99173.22;4832662;28;20046;-58
2023/05/21 11:14:37;;;;;;;4.20;1.13;;;;;;;5.37;100.00;99147.63;4810871;28;20049;-59
2023/05/21 11:17:14;;;;;;;2.30;1.17;;;;;;;5.98;100.00;99224.53;4822755;28;20075;-57
2023/05/21 11:19:47;;;;;;;4.07;0.85;;;;;;;5.89;100.00;99216.88;4823272;28;20054;-57
2023/05/21 11:22:28;;;;;;;0.90;0.80;;;;;;;5.88;100.00;99233.31;4832558;28;20623;-57
2023/05/21 11:25:05;;;;;;;2.03;0.80;;;;;;;5.79;100.00;99220.47;4823200;28;20046;-59
2023/05/21 11:27:38;;;;;;;1.60;0.90;;;;;;;5.84;100.00;99216.06;4822682;28;20046;-57
2023/05/21 11:30:15;;;;;;;2.92;1.30;;;;;;;5.52;100.00;99162.97;4828859;28;20058;-59
2023/05/21 11:33:19;;;;;;;3.13;1.10;;;;;;;5.91;100.00;99209.91;4821493;28;20065;-58
2023/05/21 11:36:00;;;;;;;1.88;0.80;;;;;;;5.81;100.00;99205.75;4822520;28;20109;-57
2023/05/21 11:38:32;;;;;;;2.38;1.00;;;;;;;5.84;100.00;99201.41;4821295;28;20097;-58
2023/05/21 11:41:07;;;;;;;2.13;0.90;;;;;;;5.82;100.00;99199.72;4827183;28;20730;-59
2023/05/21 11:43:42;;;;;;;1.00;0.80;;;;;;;5.69;100.00;99172.22;4830694;28;20058;-58
2023/05/21 11:46:16;;;;;;;1.48;0.80;;;;;;;5.71;100.00;99188.63;4831149;28;20667;-58
2023/05/21 11:48:49;;;;;;;1.08;0.98;;;;;;;5.58;100.00;99173.22;4831814;28;20050;-59
2023/05/21 11:51:21;;;;;;;1.48;0.80;;;;;;;5.64;100.00;99187.84;4831514;28;20049;-60
2023/05/21 11:53:56;;;;;;;2.85;0.90;;;;;;;5.71;100.00;99186.03;4831539;28;20093;-59
2023/05/21 11:56:31;;;;;;;3.28;0.73;;;;;;;5.80;100.00;99183.31;4821216;28;20042;-59
2023/05/21 11:59:04;;;;;;;0.70;0.70;;;;;;;5.82;100.00;99171.19;4831449;28;20492;-57
2023/05/21 12:01:36;;;;;;;1.70;1.00;;;;;;;5.56;100.00;99104.16;4821700;28;20058;-58
2023/05/21 12:04:12;;;;;;;0.70;0.70;;;;;;;5.72;100.00;99148.88;4831423;28;20054;-59
2023/05/21 12:06:45;;;;;;;1.58;0.60;;;;;;;5.70;100.00;99176.53;4831061;28;25286;-58
2023/05/21 12:09:16;;;;;;;1.33;1.00;;;;;;;5.54;100.00;99161.22;4821700;28;20132;-58
2023/05/21 12:11:50;;;;;;;1.30;0.75;;;;;;;5.52;100.00;99165.56;4831985;28;20597;-59
2023/05/21 12:14:23;;;;;;;1.17;0.88;;;;;;;4.94;100.00;99078.25;4829756;28;20148;-60
2023/05/21 12:16:55;;;;;;;1.50;0.80;;;;;;;5.28;100.00;99152.91;4822787;28;20055;-57
2023/05/21 12:26:17;;;;;;;0.75;0.60;;;;;;;5.07;100.00;99154.91;4733647;29;20061;-57
2023/05/21 12:28:51;;;;;;;1.42;0.80;;;;;;;5.09;100.00;99158.34;4745632;29;20159;-60
2023/05/21 12:31:23;;;;;;;1.45;0.90;;;;;;;5.11;100.00;99166.91;4746505;29;20083;-58
2023/05/21 12:33:55;;;;;;;2.55;1.40;;;;;;;5.15;100.00;99158.25;4741392;29;20603;-60
2023/05/21 12:36:29;;;;;;;4.53;1.30;;;;;;;5.20;100.00;99155.59;4746867;29;20273;-59
2023/05/21 12:39:01;;;;;;;2.53;1.10;;;;;;;5.19;100.00;99154.75;4745463;29;20115;-58
2023/05/21 12:41:32;;;;;;;3.42;1.00;;;;;;;5.06;100.00;99119.50;4747341;29;20060;-60
2023/05/21 12:44:07;;;;;;;3.25;1.45;;;;;;;5.33;100.00;99156.31;4742409;29;20105;-59
2023/05/21 12:46:39;;;;;;;2.60;1.17;;;;;;;5.36;100.00;99145.91;4745628;29;20100;-59
2023/05/21 12:49:38;;;;;;;1.98;0.77;;;;;;;5.38;100.00;99145.00;4744761;29;20048;-57
2023/05/21 12:52:13;;;;;;;1.92;1.10;;;;;;;5.23;100.00;99108.09;4736734;29;20168;-58
2023/05/21 12:54:46;;;;;;;1.65;1.00;;;;;;;5.27;100.00;99127.91;4740826;29;20088;-57
2023/05/21 12:57:19;;;;;;;2.55;1.10;;;;;;;5.34;100.00;99132.09;4745625;29;20052;-60